2G4

Garrett County Airport

Oakland, Maryland, USA
METAR K2G4 211735Z AUTO 33003KT 4SM OVC002 17/17 A2992 RMK AO1
Observed Flight Rules
Jun-21 @ 17:35 UTC (29 minutes ago) Instrument Flight Rules
Wind Visibility Clouds
330° at 3 knots 4 miles
  • Overcast at 200' AGL
Temperatures Readings
Current 17°C / 63°F
Dewpoint 17°C / 63°F
Humidity 100%
Altimeter 29.92" Hg
Pressure 1013 hPa
Elevation 894
METAR K2G4 211735Z AUTO 33003KT 4SM OVC002 17/17 A2992 RMK AO1
Observed Flight Rules
Jun-21 @ 17:35 UTC
(29 minutes ago)
LIFR
Wind Visibility
330° at 3 knots 4 miles
Clouds
  • Overcast at 200' AGL
Temperature Dewpoint
17°C / 63°F 17°C / 63°F
Humidity Altimeter Pressure
100% 29.92" Hg 1013 hPa